sensor_id;sensor_type;location;lat;lon;timestamp;pressure;altitude;pressure_sealevel;temperature;humidity
40075;BME280;26529;51.530;11.754;2022-08-11T00:00:08;100946.78;;;22.90;35.92
40075;BME280;26529;51.530;11.754;2022-08-11T00:02:45;100949.47;;;22.90;35.79
40075;BME280;26529;51.530;11.754;2022-08-11T00:05:16;100945.31;;;22.86;35.93
40075;BME280;26529;51.530;11.754;2022-08-11T00:07:50;100941.88;;;22.84;35.89
40075;BME280;26529;51.530;11.754;2022-08-11T00:10:20;100944.53;;;22.84;35.78
40075;BME280;26529;51.530;11.754;2022-08-11T00:12:56;100940.38;;;22.80;35.87
40075;BME280;26529;51.530;11.754;2022-08-11T00:15:28;100945.72;;;22.80;36.06
40075;BME280;26529;51.530;11.754;2022-08-11T00:18:02;100940.59;;;22.76;35.83
40075;BME280;26529;51.530;11.754;2022-08-11T00:20:35;100944.03;;;22.79;35.90
40075;BME280;26529;51.530;11.754;2022-08-11T00:23:08;100941.00;;;22.70;36.07
40075;BME280;26529;51.530;11.754;2022-08-11T00:25:39;100939.19;;;22.71;35.77
40075;BME280;26529;51.530;11.754;2022-08-11T00:28:26;100946.56;;;22.67;35.91
40075;BME280;26529;51.530;11.754;2022-08-11T00:30:53;100944.00;;;22.66;36.24
40075;BME280;26529;51.530;11.754;2022-08-11T00:33:22;100943.16;;;22.65;36.00
40075;BME280;26529;51.530;11.754;2022-08-11T00:35:49;100932.47;;;22.65;36.15
40075;BME280;26529;51.530;11.754;2022-08-11T00:38:16;100939.94;;;22.60;36.19
40075;BME280;26529;51.530;11.754;2022-08-11T00:40:50;100938.63;;;22.53;36.17
40075;BME280;26529;51.530;11.754;2022-08-11T00:49:04;100948.66;;;22.49;36.33
40075;BME280;26529;51.530;11.754;2022-08-11T00:52:13;100945.19;;;22.47;36.28
40075;BME280;26529;51.530;11.754;2022-08-11T00:58:18;100937.72;;;22.39;36.09
40075;BME280;26529;51.530;11.754;2022-08-11T01:17:34;100941.38;;;22.23;36.59
40075;BME280;26529;51.530;11.754;2022-08-11T01:20:14;100940.66;;;22.21;36.20
40075;BME280;26529;51.530;11.754;2022-08-11T01:23:29;100937.00;;;22.22;36.40
40075;BME280;26529;51.530;11.754;2022-08-11T01:46:51;100949.13;;;22.01;36.83
40075;BME280;26529;51.530;11.754;2022-08-11T01:49:26;100958.28;;;21.96;36.62
40075;BME280;26529;51.530;11.754;2022-08-11T01:52:19;100951.13;;;21.97;37.01
40075;BME280;26529;51.530;11.754;2022-08-11T01:54:51;100950.25;;;21.96;36.77
40075;BME280;26529;51.530;11.754;2022-08-11T01:57:36;100952.00;;;21.98;36.68
40075;BME280;26529;51.530;11.754;2022-08-11T02:00:18;100953.16;;;21.93;36.72
40075;BME280;26529;51.530;11.754;2022-08-11T02:02:55;100940.75;;;21.92;36.76
40075;BME280;26529;51.530;11.754;2022-08-11T02:05:46;100948.00;;;21.90;36.74
40075;BME280;26529;51.530;11.754;2022-08-11T02:08:35;100945.75;;;21.84;37.06
40075;BME280;26529;51.530;11.754;2022-08-11T02:14:23;100946.66;;;21.83;36.91
40075;BME280;26529;51.530;11.754;2022-08-11T02:17:14;100946.00;;;21.79;37.20
40075;BME280;26529;51.530;11.754;2022-08-11T02:20:02;100946.00;;;21.79;37.15
40075;BME280;26529;51.530;11.754;2022-08-11T02:25:54;100953.56;;;21.73;36.99
40075;BME280;26529;51.530;11.754;2022-08-11T02:28:23;100951.94;;;21.70;37.11
40075;BME280;26529;51.530;11.754;2022-08-11T02:31:07;100948.59;;;21.66;37.25
40075;BME280;26529;51.530;11.754;2022-08-11T02:34:23;100948.78;;;21.63;37.16
40075;BME280;26529;51.530;11.754;2022-08-11T02:40:09;100951.56;;;21.62;37.25
40075;BME280;26529;51.530;11.754;2022-08-11T02:50:37;100946.69;;;21.54;37.21
40075;BME280;26529;51.530;11.754;2022-08-11T02:53:18;100946.91;;;21.51;37.20
40075;BME280;26529;51.530;11.754;2022-08-11T02:58:35;100936.25;;;21.51;37.47
40075;BME280;26529;51.530;11.754;2022-08-11T03:01:18;100938.13;;;21.49;37.27
40075;BME280;26529;51.530;11.754;2022-08-11T03:03:53;100937.47;;;21.45;37.47
40075;BME280;26529;51.530;11.754;2022-08-11T03:09:26;100944.91;;;21.40;37.57
40075;BME280;26529;51.530;11.754;2022-08-11T03:12:18;100936.91;;;21.40;37.26
40075;BME280;26529;51.530;11.754;2022-08-11T03:15:14;100939.75;;;21.37;37.43
40075;BME280;26529;51.530;11.754;2022-08-11T03:20:41;100939.31;;;21.30;37.68
40075;BME280;26529;51.530;11.754;2022-08-11T03:25:58;100940.44;;;21.26;37.64
40075;BME280;26529;51.530;11.754;2022-08-11T03:28:49;100934.16;;;21.27;37.63
40075;BME280;26529;51.530;11.754;2022-08-11T03:31:36;100931.38;;;21.28;37.48
40075;BME280;26529;51.530;11.754;2022-08-11T03:34:15;100938.91;;;21.22;37.61
40075;BME280;26529;51.530;11.754;2022-08-11T03:37:04;100937.28;;;21.19;37.91
40075;BME280;26529;51.530;11.754;2022-08-11T03:42:34;100944.34;;;21.20;37.83
40075;BME280;26529;51.530;11.754;2022-08-11T03:47:45;100945.56;;;21.14;37.69
40075;BME280;26529;51.530;11.754;2022-08-11T04:02:07;100950.81;;;21.01;37.75
40075;BME280;26529;51.530;11.754;2022-08-11T04:13:56;100943.25;;;20.94;37.99
40075;BME280;26529;51.530;11.754;2022-08-11T04:31:35;100946.50;;;20.84;38.21
40075;BME280;26529;51.530;11.754;2022-08-11T04:34:31;100949.91;;;20.86;38.07
40075;BME280;26529;51.530;11.754;2022-08-11T04:46:04;100949.66;;;20.75;38.47
40075;BME280;26529;51.530;11.754;2022-08-11T04:52:11;100955.00;;;20.75;38.49
40075;BME280;26529;51.530;11.754;2022-08-11T05:10:27;100956.59;;;20.94;39.31
40075;BME280;26529;51.530;11.754;2022-08-11T05:13:00;100953.75;;;20.97;39.51
40075;BME280;26529;51.530;11.754;2022-08-11T05:15:52;100961.84;;;20.95;39.89
40075;BME280;26529;51.530;11.754;2022-08-11T05:18:47;100957.19;;;20.99;39.67
40075;BME280;26529;51.530;11.754;2022-08-11T05:21:34;100953.75;;;20.97;40.07
40075;BME280;26529;51.530;11.754;2022-08-11T05:24:22;100949.25;;;20.97;40.13
40075;BME280;26529;51.530;11.754;2022-08-11T05:27:09;100954.69;;;20.96;40.51
40075;BME280;26529;51.530;11.754;2022-08-11T05:30:09;100951.94;;;20.97;40.62
40075;BME280;26529;51.530;11.754;2022-08-11T05:33:10;100950.31;;;20.95;40.56
40075;BME280;26529;51.530;11.754;2022-08-11T05:36:11;100953.56;;;21.00;40.52
40075;BME280;26529;51.530;11.754;2022-08-11T05:38:49;100951.66;;;21.02;40.59
40075;BME280;26529;51.530;11.754;2022-08-11T05:41:37;100950.81;;;21.01;40.92
40075;BME280;26529;51.530;11.754;2022-08-11T05:44:23;100952.88;;;20.96;41.00
40075;BME280;26529;51.530;11.754;2022-08-11T05:47:10;100958.13;;;20.98;40.97
40075;BME280;26529;51.530;11.754;2022-08-11T05:49:55;100955.63;;;20.95;40.56
40075;BME280;26529;51.530;11.754;2022-08-11T05:52:44;100952.22;;;20.93;40.51
40075;BME280;26529;51.530;11.754;2022-08-11T05:55:29;100953.94;;;20.94;40.52
40075;BME280;26529;51.530;11.754;2022-08-11T05:58:13;100957.47;;;20.94;40.22
40075;BME280;26529;51.530;11.754;2022-08-11T06:00:41;100965.53;;;20.93;40.39
40075;BME280;26529;51.530;11.754;2022-08-11T06:03:08;100968.22;;;20.93;40.46
40075;BME280;26529;51.530;11.754;2022-08-11T06:05:37;100963.75;;;20.93;40.51
40075;BME280;26529;51.530;11.754;2022-08-11T06:08:05;100968.88;;;20.96;40.37
40075;BME280;26529;51.530;11.754;2022-08-11T06:10:33;100968.00;;;20.96;40.37
40075;BME280;26529;51.530;11.754;2022-08-11T06:13:00;100961.75;;;20.97;40.34
40075;BME280;26529;51.530;11.754;2022-08-11T06:15:27;100962.88;;;20.93;40.30
40075;BME280;26529;51.530;11.754;2022-08-11T06:17:54;100974.13;;;20.98;40.11
40075;BME280;26529;51.530;11.754;2022-08-11T06:20:21;100974.13;;;20.98;40.20
40075;BME280;26529;51.530;11.754;2022-08-11T06:22:56;100971.25;;;21.01;40.09
40075;BME280;26529;51.530;11.754;2022-08-11T06:25:30;100964.41;;;20.97;40.36
40075;BME280;26529;51.530;11.754;2022-08-11T06:27:56;100969.56;;;21.00;40.36
40075;BME280;26529;51.530;11.754;2022-08-11T06:30:42;100973.16;;;20.99;40.37
40075;BME280;26529;51.530;11.754;2022-08-11T06:33:18;100971.25;;;21.01;40.25
40075;BME280;26529;51.530;11.754;2022-08-11T06:36:05;100985.38;;;21.03;40.30
40075;BME280;26529;51.530;11.754;2022-08-11T06:41:24;100980.59;;;21.08;40.24
40075;BME280;26529;51.530;11.754;2022-08-11T06:46:45;100980.31;;;21.13;40.09
40075;BME280;26529;51.530;11.754;2022-08-11T06:49:13;100988.44;;;21.11;40.18
40075;BME280;26529;51.530;11.754;2022-08-11T06:52:06;100989.28;;;21.12;40.27
40075;BME280;26529;51.530;11.754;2022-08-11T06:54:37;100989.94;;;21.15;40.10
40075;BME280;26529;51.530;11.754;2022-08-11T06:57:06;100989.19;;;21.13;40.29
40075;BME280;26529;51.530;11.754;2022-08-11T06:59:52;100985.28;;;21.19;40.54
40075;BME280;26529;51.530;11.754;2022-08-11T07:02:42;100985.94;;;21.23;40.33
40075;BME280;26529;51.530;11.754;2022-08-11T07:05:21;100976.06;;;21.25;40.12
40075;BME280;26529;51.530;11.754;2022-08-11T07:14:20;100977.19;;;21.35;40.28
40075;BME280;26529;51.530;11.754;2022-08-11T07:17:07;100979.69;;;21.38;40.41
40075;BME280;26529;51.530;11.754;2022-08-11T07:19:36;100977.78;;;21.40;40.18
40075;BME280;26529;51.530;11.754;2022-08-11T07:22:23;100982.25;;;21.40;40.47
40075;BME280;26529;51.530;11.754;2022-08-11T07:25:08;100975.84;;;21.42;40.30
40075;BME280;26529;51.530;11.754;2022-08-11T07:28:07;100974.81;;;21.45;40.28
40075;BME280;26529;51.530;11.754;2022-08-11T07:31:03;100977.88;;;21.53;40.28
40075;BME280;26529;51.530;11.754;2022-08-11T07:33:45;100977.97;;;21.52;40.32
40075;BME280;26529;51.530;11.754;2022-08-11T07:36:11;100981.56;;;21.65;40.15
40075;BME280;26529;51.530;11.754;2022-08-11T07:38:44;100980.63;;;21.66;40.09
40075;BME280;26529;51.530;11.754;2022-08-11T07:41:16;100979.88;;;21.64;40.32
40075;BME280;26529;51.530;11.754;2022-08-11T07:43:45;100981.69;;;21.78;39.91
40075;BME280;26529;51.530;11.754;2022-08-11T07:46:14;100975.69;;;21.75;39.94
40075;BME280;26529;51.530;11.754;2022-08-11T07:49:01;100983.69;;;21.75;40.24
40075;BME280;26529;51.530;11.754;2022-08-11T07:51:45;100985.97;;;21.81;39.79
40075;BME280;26529;51.530;11.754;2022-08-11T07:54:30;100983.50;;;21.78;39.99
40075;BME280;26529;51.530;11.754;2022-08-11T07:56:57;100984.44;;;21.77;40.04
40075;BME280;26529;51.530;11.754;2022-08-11T07:59:24;100987.66;;;21.82;39.87
40075;BME280;26529;51.530;11.754;2022-08-11T08:02:09;100988.19;;;21.74;40.06
40075;BME280;26529;51.530;11.754;2022-08-11T08:04:55;100991.88;;;21.86;39.94
40075;BME280;26529;51.530;11.754;2022-08-11T08:07:40;100995.28;;;21.88;39.99
40075;BME280;26529;51.530;11.754;2022-08-11T08:10:25;100989.97;;;21.88;39.89
40075;BME280;26529;51.530;11.754;2022-08-11T08:13:09;100974.91;;;21.87;39.95
40075;BME280;26529;51.530;11.754;2022-08-11T08:15:54;100980.81;;;21.92;39.71
40075;BME280;26529;51.530;11.754;2022-08-11T08:18:39;100981.38;;;21.98;39.69
40075;BME280;26529;51.530;11.754;2022-08-11T08:21:05;100973.25;;;21.99;39.56
40075;BME280;26529;51.530;11.754;2022-08-11T08:23:38;100980.94;;;22.04;39.49
40075;BME280;26529;51.530;11.754;2022-08-11T08:26:10;100978.66;;;22.12;39.50
40075;BME280;26529;51.530;11.754;2022-08-11T08:28:56;100978.03;;;22.21;39.22
40075;BME280;26529;51.530;11.754;2022-08-11T08:31:46;100976.03;;;22.25;39.41
40075;BME280;26529;51.530;11.754;2022-08-11T08:34:13;100972.50;;;22.25;39.48
40075;BME280;26529;51.530;11.754;2022-08-11T08:36:48;100965.41;;;22.38;39.01
40075;BME280;26529;51.530;11.754;2022-08-11T08:39:18;100960.81;;;22.40;39.28
40075;BME280;26529;51.530;11.754;2022-08-11T08:41:45;100963.47;;;22.40;39.62
40075;BME280;26529;51.530;11.754;2022-08-11T08:44:16;100964.03;;;22.45;39.89
40075;BME280;26529;51.530;11.754;2022-08-11T08:46:47;100961.03;;;22.50;39.61
40075;BME280;26529;51.530;11.754;2022-08-11T08:49:15;100965.50;;;22.49;39.80
40075;BME280;26529;51.530;11.754;2022-08-11T08:51:43;100968.03;;;22.53;39.96
40075;BME280;26529;51.530;11.754;2022-08-11T08:54:17;100964.94;;;22.59;39.75
40075;BME280;26529;51.530;11.754;2022-08-11T08:56:45;100966.84;;;22.57;40.05
40075;BME280;26529;51.530;11.754;2022-08-11T08:59:12;100964.94;;;22.59;40.05
40075;BME280;26529;51.530;11.754;2022-08-11T09:01:50;100955.31;;;22.56;40.01
40075;BME280;26529;51.530;11.754;2022-08-11T09:04:17;100958.09;;;22.55;40.06
40075;BME280;26529;51.530;11.754;2022-08-11T09:06:46;100948.91;;;22.59;40.25
40075;BME280;26529;51.530;11.754;2022-08-11T09:09:12;100952.31;;;22.61;40.17
40075;BME280;26529;51.530;11.754;2022-08-11T09:11:40;100951.28;;;22.76;40.10
40075;BME280;26529;51.530;11.754;2022-08-11T09:14:17;100937.81;;;22.78;40.07
40075;BME280;26529;51.530;11.754;2022-08-11T09:16:43;100944.66;;;22.82;40.35
40075;BME280;26529;51.530;11.754;2022-08-11T09:19:09;100941.25;;;22.93;39.79
40075;BME280;26529;51.530;11.754;2022-08-11T09:21:42;100935.78;;;22.95;39.83
40075;BME280;26529;51.530;11.754;2022-08-11T09:24:10;100949.59;;;23.01;39.95
40075;BME280;26529;51.530;11.754;2022-08-11T09:26:54;100938.66;;;23.04;39.82
40075;BME280;26529;51.530;11.754;2022-08-11T09:29:30;100939.84;;;23.00;39.96
40075;BME280;26529;51.530;11.754;2022-08-11T09:31:57;100945.84;;;23.17;39.71
40075;BME280;26529;51.530;11.754;2022-08-11T09:34:23;100941.03;;;23.22;39.87
40075;BME280;26529;51.530;11.754;2022-08-11T09:36:51;100934.69;;;23.23;39.74
40075;BME280;26529;51.530;11.754;2022-08-11T09:39:36;100929.88;;;23.28;39.81
40075;BME280;26529;51.530;11.754;2022-08-11T09:42:22;100930.34;;;23.35;39.53
40075;BME280;26529;51.530;11.754;2022-08-11T09:45:10;100934.84;;;23.35;39.63
40075;BME280;26529;51.530;11.754;2022-08-11T09:47:36;100924.53;;;23.41;39.64
40075;BME280;26529;51.530;11.754;2022-08-11T09:50:05;100924.84;;;23.50;39.55
40075;BME280;26529;51.530;11.754;2022-08-11T09:52:34;100923.16;;;23.49;39.55
40075;BME280;26529;51.530;11.754;2022-08-11T09:55:01;100928.38;;;23.50;39.71
40075;BME280;26529;51.530;11.754;2022-08-11T09:57:28;100922.59;;;23.56;39.85
40075;BME280;26529;51.530;11.754;2022-08-11T10:00:12;100917.75;;;23.62;39.74
40075;BME280;26529;51.530;11.754;2022-08-11T10:02:44;100917.03;;;23.60;39.70
40075;BME280;26529;51.530;11.754;2022-08-11T10:05:14;100914.53;;;23.69;39.74
40075;BME280;26529;51.530;11.754;2022-08-11T10:07:58;100907.13;;;23.73;39.84
40075;BME280;26529;51.530;11.754;2022-08-11T10:10:25;100899.91;;;23.87;39.57
40075;BME280;26529;51.530;11.754;2022-08-11T10:13:01;100901.88;;;23.96;39.27
40075;BME280;26529;51.530;11.754;2022-08-11T10:15:29;100894.81;;;23.95;39.60
40075;BME280;26529;51.530;11.754;2022-08-11T10:18:05;100900.22;;;23.82;39.87
40075;BME280;26529;51.530;11.754;2022-08-11T10:20:51;100885.34;;;24.02;39.40
40075;BME280;26529;51.530;11.754;2022-08-11T10:23:20;100893.69;;;24.10;39.23
40075;BME280;26529;51.530;11.754;2022-08-11T10:26:05;100888.59;;;24.19;39.13
40075;BME280;26529;51.530;11.754;2022-08-11T10:28:51;100897.66;;;24.29;38.65
40075;BME280;26529;51.530;11.754;2022-08-11T10:31:18;100889.06;;;24.37;38.46
40075;BME280;26529;51.530;11.754;2022-08-11T10:34:05;100890.97;;;24.23;38.72
40075;BME280;26529;51.530;11.754;2022-08-11T10:36:37;100878.56;;;24.34;38.75
40075;BME280;26529;51.530;11.754;2022-08-11T10:39:08;100888.81;;;24.40;38.62
40075;BME280;26529;51.530;11.754;2022-08-11T10:41:35;100892.34;;;24.41;38.38
40075;BME280;26529;51.530;11.754;2022-08-11T10:44:21;100879.78;;;24.41;38.40
40075;BME280;26529;51.530;11.754;2022-08-11T10:46:47;100873.59;;;24.52;37.84
40075;BME280;26529;51.530;11.754;2022-08-11T10:49:32;100878.75;;;24.66;38.00
40075;BME280;26529;51.530;11.754;2022-08-11T10:51:58;100876.81;;;24.69;37.59
40075;BME280;26529;51.530;11.754;2022-08-11T10:54:43;100867.78;;;24.70;37.92
40075;BME280;26529;51.530;11.754;2022-08-11T10:57:28;100868.81;;;24.80;38.18
40075;BME280;26529;51.530;11.754;2022-08-11T11:00:14;100864.91;;;24.84;38.03
40075;BME280;26529;51.530;11.754;2022-08-11T11:02:42;100866.13;;;24.91;37.64
40075;BME280;26529;51.530;11.754;2022-08-11T11:05:21;100856.25;;;24.92;37.73
40075;BME280;26529;51.530;11.754;2022-08-11T11:07:55;100860.03;;;25.01;37.63
40075;BME280;26529;51.530;11.754;2022-08-11T11:10:22;100858.56;;;25.08;37.63
40075;BME280;26529;51.530;11.754;2022-08-11T11:12:52;100850.16;;;25.13;37.68
40075;BME280;26529;51.530;11.754;2022-08-11T11:15:40;100846.97;;;25.19;37.59
40075;BME280;26529;51.530;11.754;2022-08-11T11:18:31;100838.66;;;25.22;37.57
40075;BME280;26529;51.530;11.754;2022-08-11T11:21:07;100845.72;;;25.23;37.34
40075;BME280;26529;51.530;11.754;2022-08-11T11:23:54;100842.19;;;25.34;37.30
40075;BME280;26529;51.530;11.754;2022-08-11T11:26:49;100849.00;;;25.27;37.19
40075;BME280;26529;51.530;11.754;2022-08-11T11:29:49;100845.50;;;25.38;36.88
40075;BME280;26529;51.530;11.754;2022-08-11T11:37:42;100833.59;;;25.52;36.39
40075;BME280;26529;51.530;11.754;2022-08-11T11:40:12;100835.31;;;25.64;36.50
40075;BME280;26529;51.530;11.754;2022-08-11T11:42:40;100830.22;;;25.61;36.90
40075;BME280;26529;51.530;11.754;2022-08-11T11:45:07;100826.38;;;25.64;36.89
40075;BME280;26529;51.530;11.754;2022-08-11T11:47:35;100824.78;;;25.72;36.61
40075;BME280;26529;51.530;11.754;2022-08-11T11:50:02;100825.53;;;25.74;36.52
40075;BME280;26529;51.530;11.754;2022-08-11T11:52:28;100824.03;;;25.82;36.56
40075;BME280;26529;51.530;11.754;2022-08-11T11:54:55;100812.81;;;25.77;36.42
40075;BME280;26529;51.530;11.754;2022-08-11T11:57:21;100806.41;;;25.89;36.37
40075;BME280;26529;51.530;11.754;2022-08-11T12:00:08;100819.31;;;25.95;36.20
40075;BME280;26529;51.530;11.754;2022-08-11T12:02:54;100815.09;;;25.81;36.44
40075;BME280;26529;51.530;11.754;2022-08-11T12:05:20;100817.47;;;25.96;36.10
40075;BME280;26529;51.530;11.754;2022-08-11T12:07:47;100809.56;;;25.94;35.85
40075;BME280;26529;51.530;11.754;2022-08-11T12:10:36;100803.41;;;26.04;35.96
40075;BME280;26529;51.530;11.754;2022-08-11T12:13:03;100800.06;;;26.11;35.50
40075;BME280;26529;51.530;11.754;2022-08-11T12:15:49;100789.31;;;26.11;35.41
40075;BME280;26529;51.530;11.754;2022-08-11T12:18:17;100789.63;;;26.18;35.51
40075;BME280;26529;51.530;11.754;2022-08-11T12:20:43;100789.13;;;26.24;35.33
40075;BME280;26529;51.530;11.754;2022-08-11T12:23:10;100782.19;;;26.22;35.57
40075;BME280;26529;51.530;11.754;2022-08-11T12:25:55;100781.53;;;26.30;35.08
40075;BME280;26529;51.530;11.754;2022-08-11T12:28:41;100790.00;;;26.25;35.22
40075;BME280;26529;51.530;11.754;2022-08-11T12:31:07;100787.78;;;26.40;35.06
40075;BME280;26529;51.530;11.754;2022-08-11T12:33:37;100789.38;;;26.42;35.05
40075;BME280;26529;51.530;11.754;2022-08-11T12:36:04;100777.03;;;26.40;34.38
40075;BME280;26529;51.530;11.754;2022-08-11T12:38:30;100782.16;;;26.43;34.60
40075;BME280;26529;51.530;11.754;2022-08-11T12:40:57;100775.97;;;26.52;34.60
40075;BME280;26529;51.530;11.754;2022-08-11T12:43:44;100772.28;;;26.53;34.58
40075;BME280;26529;51.530;11.754;2022-08-11T12:46:32;100770.94;;;26.59;34.50
40075;BME280;26529;51.530;11.754;2022-08-11T12:49:04;100770.50;;;26.64;34.20
40075;BME280;26529;51.530;11.754;2022-08-11T12:51:52;100763.44;;;26.63;34.15
40075;BME280;26529;51.530;11.754;2022-08-11T12:54:30;100764.16;;;26.65;34.26
40075;BME280;26529;51.530;11.754;2022-08-11T12:57:03;100765.03;;;26.75;34.13
40075;BME280;26529;51.530;11.754;2022-08-11T12:59:50;100761.63;;;26.73;34.35
40075;BME280;26529;51.530;11.754;2022-08-11T13:02:34;100750.88;;;26.73;34.40
40075;BME280;26529;51.530;11.754;2022-08-11T13:05:18;100753.28;;;26.76;33.96
40075;BME280;26529;51.530;11.754;2022-08-11T13:07:46;100753.03;;;26.89;33.89
40075;BME280;26529;51.530;11.754;2022-08-11T13:10:13;100748.66;;;26.88;33.89
40075;BME280;26529;51.530;11.754;2022-08-11T13:13:02;100747.44;;;26.92;33.89
40075;BME280;26529;51.530;11.754;2022-08-11T13:15:28;100747.72;;;26.99;33.62
40075;BME280;26529;51.530;11.754;2022-08-11T13:17:55;100758.34;;;27.01;33.74
40075;BME280;26529;51.530;11.754;2022-08-11T13:20:22;100738.63;;;27.00;33.81
40075;BME280;26529;51.530;11.754;2022-08-11T13:22:50;100733.25;;;27.00;33.69
40075;BME280;26529;51.530;11.754;2022-08-11T13:25:18;100736.53;;;27.04;33.88
40075;BME280;26529;51.530;11.754;2022-08-11T13:27:46;100738.22;;;27.05;34.13
40075;BME280;26529;51.530;11.754;2022-08-11T13:30:13;100732.28;;;27.11;33.75
40075;BME280;26529;51.530;11.754;2022-08-11T13:32:58;100730.59;;;27.10;33.85
40075;BME280;26529;51.530;11.754;2022-08-11T13:35:24;100717.00;;;27.12;33.87
40075;BME280;26529;51.530;11.754;2022-08-11T13:37:52;100721.69;;;27.19;33.27
40075;BME280;26529;51.530;11.754;2022-08-11T13:40:20;100723.97;;;27.24;33.36
40075;BME280;26529;51.530;11.754;2022-08-11T13:42:48;100713.06;;;27.16;33.93
40075;BME280;26529;51.530;11.754;2022-08-11T13:45:14;100717.56;;;27.25;33.22
40075;BME280;26529;51.530;11.754;2022-08-11T13:47:41;100705.38;;;27.31;33.34
40075;BME280;26529;51.530;11.754;2022-08-11T13:50:08;100704.56;;;27.30;33.47
40075;BME280;26529;51.530;11.754;2022-08-11T13:52:35;100695.75;;;27.28;33.64
40075;BME280;26529;51.530;11.754;2022-08-11T13:55:05;100695.75;;;27.28;33.33
40075;BME280;26529;51.530;11.754;2022-08-11T13:57:32;100692.66;;;27.43;33.56
40075;BME280;26529;51.530;11.754;2022-08-11T13:59:58;100690.34;;;27.38;32.44
40075;BME280;26529;51.530;11.754;2022-08-11T14:02:40;100680.72;;;27.45;33.29
40075;BME280;26529;51.530;11.754;2022-08-11T14:05:14;100676.50;;;27.43;33.65
40075;BME280;26529;51.530;11.754;2022-08-11T14:07:48;100676.19;;;27.46;33.85
40075;BME280;26529;51.530;11.754;2022-08-11T14:10:18;100676.09;;;27.57;33.47
40075;BME280;26529;51.530;11.754;2022-08-11T14:12:52;100669.69;;;27.58;33.00
40075;BME280;26529;51.530;11.754;2022-08-11T14:15:40;100671.13;;;27.62;32.50
40075;BME280;26529;51.530;11.754;2022-08-11T14:18:10;100673.06;;;27.50;32.50
40075;BME280;26529;51.530;11.754;2022-08-11T14:20:39;100669.41;;;27.61;33.27
40075;BME280;26529;51.530;11.754;2022-08-11T14:23:30;100662.31;;;27.60;33.38
40075;BME280;26529;51.530;11.754;2022-08-11T14:25:57;100660.03;;;27.66;33.09
40075;BME280;26529;51.530;11.754;2022-08-11T14:28:41;100658.34;;;27.65;33.46
40075;BME280;26529;51.530;11.754;2022-08-11T14:31:07;100650.69;;;27.70;33.23
40075;BME280;26529;51.530;11.754;2022-08-11T14:33:34;100659.88;;;27.77;33.00
40075;BME280;26529;51.530;11.754;2022-08-11T14:36:02;100661.72;;;27.76;32.53
40075;BME280;26529;51.530;11.754;2022-08-11T14:38:32;100660.88;;;27.76;31.96
40075;BME280;26529;51.530;11.754;2022-08-11T14:40:59;100641.03;;;27.77;32.82
40075;BME280;26529;51.530;11.754;2022-08-11T14:43:44;100651.91;;;27.85;32.60
40075;BME280;26529;51.530;11.754;2022-08-11T14:46:30;100650.22;;;27.84;33.07
40075;BME280;26529;51.530;11.754;2022-08-11T14:49:16;100658.00;;;27.87;32.53
40075;BME280;26529;51.530;11.754;2022-08-11T14:51:42;100655.88;;;27.81;33.36
40075;BME280;26529;51.530;11.754;2022-08-11T14:54:08;100657.47;;;27.74;33.08
40075;BME280;26529;51.530;11.754;2022-08-11T14:56:53;100657.88;;;27.79;32.51
40075;BME280;26529;51.530;11.754;2022-08-11T14:59:20;100649.06;;;27.87;31.88
40075;BME280;26529;51.530;11.754;2022-08-11T15:01:47;100655.19;;;27.79;31.05
40075;BME280;26529;51.530;11.754;2022-08-11T15:04:31;100666.28;;;27.76;30.99
40075;BME280;26529;51.530;11.754;2022-08-11T15:06:57;100655.44;;;27.86;32.57
40075;BME280;26529;51.530;11.754;2022-08-11T15:09:23;100649.22;;;27.85;32.48
40075;BME280;26529;51.530;11.754;2022-08-11T15:11:49;100651.06;;;27.85;32.71
40075;BME280;26529;51.530;11.754;2022-08-11T15:14:34;100650.66;;;27.80;32.92
40075;BME280;26529;51.530;11.754;2022-08-11T15:17:18;100642.97;;;27.85;32.75
40075;BME280;26529;51.530;11.754;2022-08-11T15:19:46;100652.59;;;27.87;31.73
40075;BME280;26529;51.530;11.754;2022-08-11T15:22:32;100647.78;;;27.91;31.94
40075;BME280;26529;51.530;11.754;2022-08-11T15:25:17;100637.00;;;27.91;32.30
40075;BME280;26529;51.530;11.754;2022-08-11T15:27:46;100636.44;;;27.87;32.18
40075;BME280;26529;51.530;11.754;2022-08-11T15:30:32;100632.34;;;27.83;32.75
40075;BME280;26529;51.530;11.754;2022-08-11T15:33:18;100630.50;;;27.84;32.65
40075;BME280;26529;51.530;11.754;2022-08-11T15:36:06;100627.94;;;27.82;32.55
40075;BME280;26529;51.530;11.754;2022-08-11T15:38:56;100622.84;;;27.79;32.65
40075;BME280;26529;51.530;11.754;2022-08-11T15:41:27;100618.88;;;27.83;33.12
40075;BME280;26529;51.530;11.754;2022-08-11T15:44:13;100621.03;;;27.80;32.76
40075;BME280;26529;51.530;11.754;2022-08-11T15:47:01;100622.28;;;27.85;32.61
40075;BME280;26529;51.530;11.754;2022-08-11T15:49:30;100622.69;;;27.90;32.48
40075;BME280;26529;51.530;11.754;2022-08-11T15:52:02;100625.06;;;27.94;31.54
40075;BME280;26529;51.530;11.754;2022-08-11T15:54:32;100620.38;;;27.96;32.07
40075;BME280;26529;51.530;11.754;2022-08-11T15:57:00;100623.06;;;27.96;32.00
40075;BME280;26529;51.530;11.754;2022-08-11T15:59:30;100625.66;;;27.87;32.78
40075;BME280;26529;51.530;11.754;2022-08-11T16:02:19;100622.25;;;27.95;31.35
40075;BME280;26529;51.530;11.754;2022-08-11T16:05:10;100617.69;;;27.96;31.84
40075;BME280;26529;51.530;11.754;2022-08-11T16:07:37;100610.59;;;27.95;31.83
40075;BME280;26529;51.530;11.754;2022-08-11T16:10:08;100612.28;;;27.96;32.39